createdAt,value
2023-05-20T00:02:27.928Z,12.40
2023-05-20T00:05:01.073Z,12.40
2023-05-20T00:07:34.147Z,12.40
2023-05-20T00:10:08.589Z,12.30
2023-05-20T00:12:42.989Z,12.30
2023-05-20T00:15:17.589Z,12.30
2023-05-20T00:17:50.795Z,12.30
2023-05-20T00:20:23.898Z,12.20
2023-05-20T00:22:56.978Z,12.20
2023-05-20T00:25:31.691Z,12.10
2023-05-20T00:28:07.504Z,12.10
2023-05-20T00:30:41.922Z,12.10
2023-05-20T00:33:15.037Z,12.10
2023-05-20T00:35:48.087Z,12.10
2023-05-20T00:38:21.187Z,12.00
2023-05-20T00:40:54.240Z,12.00
2023-05-20T00:43:28.993Z,12.00
2023-05-20T00:46:02.966Z,12.00
2023-05-20T00:48:42.372Z,12.00
2023-05-20T00:51:15.957Z,11.90
2023-05-20T00:53:49.184Z,11.90
2023-05-20T00:56:22.908Z,11.80
2023-05-20T00:58:57.571Z,11.70
2023-05-20T01:01:30.718Z,11.80
2023-05-20T01:04:04.437Z,11.70
2023-05-20T01:06:38.965Z,11.70
2023-05-20T01:09:12.087Z,11.60
2023-05-20T01:11:52.989Z,11.50
2023-05-20T01:14:31.320Z,11.50
2023-05-20T01:17:11.165Z,11.50
2023-05-20T01:19:45.683Z,11.50
2023-05-20T01:22:18.779Z,11.50
2023-05-20T01:24:53.904Z,11.40
2023-05-20T01:27:27.072Z,11.40
2023-05-20T01:30:00.323Z,11.40
2023-05-20T01:32:38.723Z,11.30
2023-05-20T01:35:12.397Z,11.20
2023-05-20T01:37:46.421Z,11.20
2023-05-20T01:40:21.206Z,11.20
2023-05-20T01:42:55.896Z,11.20
2023-05-20T01:45:29.050Z,11.20
2023-05-20T01:48:03.591Z,11.20
2023-05-20T01:50:36.659Z,11.20
2023-05-20T01:53:09.766Z,11.10
2023-05-20T01:55:44.206Z,11.10
2023-05-20T01:58:17.273Z,11.10
2023-05-20T02:00:50.520Z,11.00
2023-05-20T02:03:23.786Z,11.10
2023-05-20T02:05:57.051Z,11.10
2023-05-20T02:08:30.137Z,11.10
2023-05-20T02:11:04.597Z,11.10
2023-05-20T02:13:37.616Z,11.10
2023-05-20T02:16:10.775Z,11.10
2023-05-20T02:18:44.050Z,11.00
2023-05-20T02:21:17.150Z,11.00
2023-05-20T02:23:50.425Z,11.00
2023-05-20T02:26:25.266Z,11.00
2023-05-20T02:28:58.335Z,11.00
2023-05-20T02:31:31.446Z,11.00
2023-05-20T02:34:05.042Z,11.00
2023-05-20T02:36:38.193Z,11.00
2023-05-20T02:39:11.586Z,11.00
2023-05-20T02:41:45.976Z,11.00
2023-05-20T02:44:19.095Z,11.00
2023-05-20T02:46:52.191Z,11.00
2023-05-20T02:49:25.405Z,11.00
2023-05-20T02:51:58.477Z,11.00
2023-05-20T02:54:31.488Z,11.00
2023-05-20T02:57:06.424Z,11.00
2023-05-20T02:59:39.628Z,11.00
2023-05-20T03:02:12.694Z,11.00
2023-05-20T03:04:47.339Z,11.10
2023-05-20T03:07:21.646Z,11.10
2023-05-20T03:09:54.837Z,11.10
2023-05-20T03:12:29.259Z,11.10
2023-05-20T03:15:02.305Z,11.10
2023-05-20T03:17:35.752Z,11.10
2023-05-20T03:20:10.742Z,11.10
2023-05-20T03:22:43.823Z,11.10
2023-05-20T03:25:16.900Z,11.10
2023-05-20T03:27:51.524Z,11.10
2023-05-20T03:30:25.126Z,11.10
2023-05-20T03:32:58.729Z,11.00
2023-05-20T03:35:32.046Z,11.00
2023-05-20T03:38:05.371Z,11.00
2023-05-20T03:40:38.471Z,10.90
2023-05-20T03:43:12.875Z,10.90
2023-05-20T03:45:46.081Z,10.90
2023-05-20T03:48:20.159Z,10.90
2023-05-20T03:50:53.257Z,10.80
2023-05-20T03:53:26.470Z,10.80
2023-05-20T03:55:59.560Z,10.80
2023-05-20T03:58:34.005Z,10.80
2023-05-20T04:01:07.122Z,10.80
2023-05-20T04:03:42.304Z,10.90
2023-05-20T04:06:16.023Z,10.90
2023-05-20T04:08:49.136Z,11.00
2023-05-20T04:11:22.469Z,10.90
2023-05-20T04:13:56.889Z,11.00
2023-05-20T04:16:30.500Z,11.10
2023-05-20T04:19:03.591Z,11.00
2023-05-20T04:21:36.700Z,11.10
2023-05-20T04:24:09.743Z,11.10
2023-05-20T04:26:43.163Z,11.10
2023-05-20T04:29:18.858Z,11.20
2023-05-20T04:31:52.169Z,11.30
2023-05-20T04:34:26.944Z,11.30
2023-05-20T04:37:00.371Z,11.40
2023-05-20T04:39:33.423Z,11.40
2023-05-20T04:42:07.189Z,11.40
2023-05-20T04:44:42.419Z,11.50
2023-05-20T04:47:15.730Z,11.50
2023-05-20T04:49:50.310Z,11.60
2023-05-20T04:52:23.582Z,11.60
2023-05-20T04:54:58.236Z,11.70
2023-05-20T04:57:31.323Z,11.80
2023-05-20T05:00:08.014Z,12.00
2023-05-20T05:02:41.465Z,12.10
2023-05-20T05:05:14.645Z,12.30
2023-05-20T05:07:47.689Z,12.40
2023-05-20T05:10:21.956Z,12.50
2023-05-20T05:12:55.042Z,12.70
2023-05-20T05:15:29.921Z,12.90
2023-05-20T05:18:03.364Z,13.00
2023-05-20T05:20:36.506Z,13.10
2023-05-20T05:23:09.713Z,13.10
2023-05-20T05:25:42.855Z,13.20
2023-05-20T05:28:16.000Z,13.40
2023-05-20T05:30:50.721Z,13.50
2023-05-20T05:33:23.859Z,13.60
2023-05-20T05:35:59.099Z,13.60
2023-05-20T05:38:32.502Z,13.90
2023-05-20T05:41:05.643Z,14.40
2023-05-20T05:43:39.102Z,14.70
2023-05-20T05:46:13.700Z,15.00
2023-05-20T05:48:49.213Z,15.40
2023-05-20T05:51:22.532Z,15.70
2023-05-20T05:53:56.146Z,15.90
2023-05-20T05:56:29.240Z,16.20
2023-05-20T05:59:02.494Z,16.50
2023-05-20T06:01:37.474Z,16.60
2023-05-20T06:04:10.833Z,16.80
2023-05-20T06:06:44.075Z,17.00
2023-05-20T06:09:17.203Z,17.20
2023-05-20T06:11:50.493Z,17.40
2023-05-20T06:14:23.984Z,17.80
2023-05-20T06:16:58.643Z,18.20
2023-05-20T06:19:31.889Z,18.30
2023-05-20T06:22:05.643Z,18.70
2023-05-20T06:24:38.842Z,18.50
2023-05-20T06:27:12.207Z,18.40
2023-05-20T06:29:45.368Z,17.90
2023-05-20T06:32:19.927Z,17.50
2023-05-20T06:34:53.089Z,17.40
2023-05-20T06:37:26.323Z,17.40
2023-05-20T06:39:59.517Z,17.30
2023-05-20T06:42:32.638Z,17.10
2023-05-20T06:45:06.950Z,16.80
2023-05-20T06:47:41.430Z,16.60
2023-05-20T06:50:14.655Z,16.70
2023-05-20T06:52:47.759Z,16.40
2023-05-20T06:55:21.096Z,16.40
2023-05-20T06:57:55.274Z,16.20
2023-05-20T07:00:28.303Z,16.20
2023-05-20T07:03:02.851Z,16.10
2023-05-20T07:05:38.701Z,16.50
2023-05-20T07:08:12.298Z,16.40
2023-05-20T07:10:46.536Z,16.30
2023-05-20T07:13:19.884Z,16.20
2023-05-20T07:15:53.216Z,16.30
2023-05-20T07:18:28.472Z,16.50
2023-05-20T07:21:01.513Z,16.60
2023-05-20T07:23:34.599Z,16.80
2023-05-20T07:26:07.719Z,17.20
2023-05-20T07:28:40.872Z,17.30
2023-05-20T07:31:14.432Z,17.10
2023-05-20T07:33:48.794Z,17.00
2023-05-20T07:36:21.891Z,16.70
2023-05-20T07:39:02.474Z,17.00
2023-05-20T07:41:37.411Z,16.90
2023-05-20T07:44:11.281Z,17.10
2023-05-20T07:46:44.568Z,17.20
2023-05-20T07:49:18.998Z,17.30
2023-05-20T07:51:52.107Z,17.70
2023-05-20T07:54:25.288Z,17.90
2023-05-20T07:57:00.269Z,18.40
2023-05-20T07:59:33.284Z,19.20
2023-05-20T08:02:07.080Z,19.70
2023-05-20T08:04:41.553Z,19.80
2023-05-20T08:07:14.578Z,20.20
2023-05-20T08:09:47.628Z,20.30
2023-05-20T08:12:20.807Z,20.30
2023-05-20T08:14:55.487Z,20.40
2023-05-20T08:17:28.555Z,20.40
2023-05-20T08:20:03.305Z,20.30
2023-05-20T08:22:37.568Z,19.70
2023-05-20T08:25:11.445Z,19.20
2023-05-20T08:27:44.598Z,19.20
2023-05-20T08:30:17.669Z,19.50
2023-05-20T08:32:50.839Z,19.50
2023-05-20T08:35:25.694Z,19.60
2023-05-20T08:37:58.891Z,19.70
2023-05-20T08:40:32.051Z,19.70
2023-05-20T08:43:06.011Z,19.40
2023-05-20T08:45:40.153Z,19.40
2023-05-20T08:48:13.776Z,19.10
2023-05-20T08:50:52.866Z,19.40
2023-05-20T08:53:26.671Z,19.90
2023-05-20T08:56:02.787Z,20.20
2023-05-20T08:58:36.008Z,20.20
2023-05-20T09:01:09.518Z,20.20
2023-05-20T09:03:43.514Z,20.00
2023-05-20T09:06:20.153Z,20.00
2023-05-20T09:08:53.265Z,20.00
2023-05-20T09:11:27.275Z,20.20
2023-05-20T09:14:00.337Z,20.60
2023-05-20T09:16:33.418Z,20.80
2023-05-20T09:19:09.806Z,21.20
2023-05-20T09:21:44.310Z,21.40
2023-05-20T09:24:24.071Z,21.30
2023-05-20T09:26:57.715Z,21.50
2023-05-20T09:29:35.030Z,21.10
2023-05-20T09:32:08.834Z,21.20
2023-05-20T09:34:43.043Z,21.30
2023-05-20T09:37:20.402Z,21.10
2023-05-20T09:39:59.548Z,21.30
2023-05-20T09:42:41.556Z,20.90
2023-05-20T09:45:14.615Z,20.60
2023-05-20T09:47:48.282Z,20.80
2023-05-20T09:50:23.351Z,21.10
2023-05-20T09:52:57.788Z,21.00
2023-05-20T09:55:32.008Z,21.00
2023-05-20T09:58:05.213Z,21.00
2023-05-20T10:00:38.455Z,21.30
2023-05-20T10:03:11.743Z,21.60
2023-05-20T10:05:56.475Z,21.40
2023-05-20T10:08:51.428Z,21.70
2023-05-20T10:11:34.258Z,21.50
2023-05-20T10:14:27.484Z,21.50
2023-05-20T10:17:10.828Z,21.40
2023-05-20T10:19:44.884Z,21.50
2023-05-20T10:22:29.102Z,21.70
2023-05-20T10:25:11.067Z,21.60
2023-05-20T10:27:45.541Z,21.70
2023-05-20T10:30:21.233Z,21.80
2023-05-20T10:32:57.438Z,21.90
2023-05-20T10:35:30.887Z,21.60
2023-05-20T10:38:13.001Z,21.40
2023-05-20T10:40:47.396Z,21.60
2023-05-20T10:43:28.865Z,22.10
2023-05-20T10:46:04.855Z,22.30
2023-05-20T10:48:44.262Z,22.50
2023-05-20T10:51:17.979Z,22.20
2023-05-20T10:53:56.133Z,22.00
2023-05-20T10:56:30.727Z,22.20
2023-05-20T10:59:04.023Z,22.10
2023-05-20T11:01:37.159Z,21.70
2023-05-20T11:04:12.226Z,21.70
2023-05-20T11:06:53.627Z,22.00
2023-05-20T11:09:26.743Z,22.10
2023-05-20T11:12:01.729Z,22.10
2023-05-20T11:14:36.507Z,22.20
2023-05-20T11:17:09.716Z,22.30
2023-05-20T11:19:43.050Z,22.10
2023-05-20T11:22:16.655Z,22.40
2023-05-20T11:24:49.745Z,22.50
2023-05-20T11:27:24.103Z,22.60
2023-05-20T11:29:57.558Z,22.40
2023-05-20T11:32:30.738Z,22.30
2023-05-20T11:35:04.908Z,22.30
2023-05-20T11:37:37.903Z,22.20
2023-05-20T11:40:13.268Z,22.50
2023-05-20T11:42:47.732Z,22.40
2023-05-20T11:45:20.767Z,22.20
2023-05-20T11:48:01.874Z,22.30
2023-05-20T11:50:39.381Z,22.50
2023-05-20T11:53:17.858Z,22.40
2023-05-20T11:55:52.732Z,22.40
2023-05-20T11:58:30.141Z,22.40
2023-05-20T12:01:17.925Z,22.40
2023-05-20T12:03:55.366Z,22.40
2023-05-20T12:06:29.394Z,22.50
2023-05-20T12:09:06.881Z,22.70
2023-05-20T12:11:42.192Z,22.90
2023-05-20T12:14:16.829Z,23.10
2023-05-20T12:16:49.867Z,23.30
2023-05-20T12:19:22.942Z,23.10
2023-05-20T12:21:56.000Z,22.90
2023-05-20T12:24:29.033Z,23.20
2023-05-20T12:27:04.066Z,23.30
2023-05-20T12:29:38.401Z,23.20
2023-05-20T12:32:11.416Z,23.00
2023-05-20T12:34:44.429Z,22.90
2023-05-20T12:37:17.589Z,22.90
2023-05-20T12:39:50.642Z,22.90
2023-05-20T12:42:23.633Z,23.10
2023-05-20T12:44:57.961Z,23.40
2023-05-20T12:47:31.162Z,23.40
2023-05-20T12:50:05.114Z,23.30
2023-05-20T12:52:38.116Z,23.10
2023-05-20T12:55:13.816Z,23.20
2023-05-20T12:57:48.754Z,23.30
2023-05-20T13:00:23.191Z,23.40
2023-05-20T13:02:56.346Z,23.40
2023-05-20T13:05:29.461Z,23.60
2023-05-20T13:08:02.493Z,23.40
2023-05-20T13:10:35.937Z,23.10
2023-05-20T13:13:09.266Z,23.00
2023-05-20T13:15:43.607Z,23.20
2023-05-20T13:18:17.340Z,23.30
2023-05-20T13:20:50.520Z,23.50
2023-05-20T13:23:23.555Z,23.30
2023-05-20T13:25:56.598Z,23.40
2023-05-20T13:28:29.629Z,23.50
2023-05-20T13:31:07.849Z,23.70
2023-05-20T13:33:40.925Z,23.70
2023-05-20T13:36:14.911Z,23.80
2023-05-20T13:38:47.916Z,23.90
2023-05-20T13:41:21.042Z,24.00
2023-05-20T13:43:54.559Z,24.00
2023-05-20T13:46:28.966Z,24.00
2023-05-20T13:49:02.085Z,24.00
2023-05-20T13:51:35.115Z,23.80
2023-05-20T13:54:08.156Z,23.40
2023-05-20T13:56:41.274Z,23.30
2023-05-20T13:59:14.319Z,23.20
2023-05-20T14:01:48.703Z,23.20
2023-05-20T14:04:22.255Z,23.20
2023-05-20T14:06:55.655Z,23.30
2023-05-20T14:09:28.700Z,23.30
2023-05-20T14:12:01.926Z,23.30
2023-05-20T14:14:35.315Z,23.50
2023-05-20T14:17:09.750Z,23.60
2023-05-20T14:19:43.277Z,23.80
2023-05-20T14:22:16.368Z,23.90
2023-05-20T14:24:49.400Z,23.80
2023-05-20T14:27:22.443Z,23.90
2023-05-20T14:29:55.450Z,23.80
2023-05-20T14:32:30.093Z,23.80
2023-05-20T14:35:03.342Z,24.10
2023-05-20T14:37:36.364Z,23.90
2023-05-20T14:40:10.796Z,23.90
2023-05-20T14:42:43.888Z,23.80
2023-05-20T14:45:17.094Z,23.60
2023-05-20T14:47:51.676Z,23.70
2023-05-20T14:50:24.814Z,23.50
2023-05-20T14:52:57.826Z,23.40
2023-05-20T14:55:30.882Z,23.30
2023-05-20T14:58:04.016Z,23.40
2023-05-20T15:00:37.304Z,23.40
2023-05-20T15:03:12.576Z,23.50
2023-05-20T15:05:45.824Z,23.70
2023-05-20T15:08:19.166Z,23.50
2023-05-20T15:10:52.205Z,23.40
2023-05-20T15:13:25.249Z,23.40
2023-05-20T15:15:58.346Z,23.40
2023-05-20T15:18:32.763Z,23.20
2023-05-20T15:21:06.577Z,23.30
2023-05-20T15:23:39.635Z,23.30
2023-05-20T15:26:12.894Z,23.40
2023-05-20T15:28:46.119Z,23.50
2023-05-20T15:31:19.514Z,23.60
2023-05-20T15:33:54.018Z,23.70
2023-05-20T15:36:27.164Z,23.50
2023-05-20T15:39:00.242Z,23.60
2023-05-20T15:41:33.823Z,23.50
2023-05-20T15:44:06.881Z,23.60
2023-05-20T15:46:39.995Z,23.80
2023-05-20T15:49:14.472Z,23.60
2023-05-20T15:51:59.121Z,23.60
2023-05-20T15:54:35.782Z,23.50
2023-05-20T15:57:08.834Z,23.60
2023-05-20T15:59:41.870Z,23.60
2023-05-20T16:02:14.982Z,23.80
2023-05-20T16:04:49.459Z,23.80
2023-05-20T16:07:22.471Z,23.80
2023-05-20T16:09:55.678Z,23.80
2023-05-20T16:12:28.821Z,23.70
2023-05-20T16:15:02.136Z,23.60
2023-05-20T16:17:35.242Z,23.50
2023-05-20T16:20:10.983Z,23.50
2023-05-20T16:22:44.047Z,23.50
2023-05-20T16:25:17.263Z,23.50
2023-05-20T16:27:50.425Z,23.60
2023-05-20T16:30:23.453Z,23.60
2023-05-20T16:32:56.625Z,23.70
2023-05-20T16:35:31.069Z,23.70
2023-05-20T16:38:04.199Z,23.70
2023-05-20T16:40:37.244Z,23.70
2023-05-20T16:43:10.397Z,23.80
2023-05-20T16:45:43.627Z,23.70
2023-05-20T16:48:16.780Z,23.80
2023-05-20T16:50:51.266Z,23.80
2023-05-20T16:53:24.409Z,23.80
2023-05-20T16:55:57.479Z,23.70
2023-05-20T16:58:31.118Z,23.60
2023-05-20T17:01:04.421Z,23.80
2023-05-20T17:03:37.575Z,23.80
2023-05-20T17:06:12.475Z,23.70
2023-05-20T17:08:45.512Z,23.70
2023-05-20T17:11:18.699Z,23.70
2023-05-20T17:13:51.823Z,23.60
2023-05-20T17:16:24.941Z,23.60
2023-05-20T17:18:58.729Z,23.50
2023-05-20T17:21:34.595Z,23.40
2023-05-20T17:24:08.222Z,23.50
2023-05-20T17:26:41.397Z,23.30
2023-05-20T17:29:14.435Z,23.30
2023-05-20T17:31:47.869Z,23.20
2023-05-20T17:34:23.894Z,23.20
2023-05-20T17:37:04.421Z,23.10
2023-05-20T17:39:37.430Z,23.10
2023-05-20T17:42:10.907Z,23.00
2023-05-20T17:44:43.978Z,22.90
2023-05-20T17:47:17.183Z,22.90
2023-05-20T17:49:50.616Z,22.80
2023-05-20T17:52:25.217Z,22.80
2023-05-20T17:54:58.288Z,22.80
2023-05-20T17:57:31.299Z,22.70
2023-05-20T18:00:06.526Z,22.60
2023-05-20T18:02:39.721Z,22.50
2023-05-20T18:05:13.645Z,22.50
2023-05-20T18:07:48.016Z,22.50
2023-05-20T18:10:21.087Z,22.40
2023-05-20T18:12:54.086Z,22.30
2023-05-20T18:15:27.090Z,22.20
2023-05-20T18:18:00.508Z,22.20
2023-05-20T18:20:33.699Z,22.10
2023-05-20T18:23:08.150Z,22.00
2023-05-20T18:25:42.735Z,21.90
2023-05-20T18:28:21.089Z,21.80
2023-05-20T18:30:55.514Z,21.80
2023-05-20T18:33:28.583Z,21.70
2023-05-20T18:36:01.811Z,21.60
2023-05-20T18:38:37.075Z,21.50
2023-05-20T18:41:11.178Z,21.50
2023-05-20T18:43:44.167Z,21.40
2023-05-20T18:46:18.157Z,21.40
2023-05-20T18:48:51.281Z,21.30
2023-05-20T18:51:25.741Z,21.20
2023-05-20T18:54:00.554Z,21.10
2023-05-20T18:56:34.046Z,21.10
2023-05-20T18:59:07.606Z,21.10
2023-05-20T19:01:41.329Z,21.00
2023-05-20T19:04:14.382Z,20.90
2023-05-20T19:06:48.090Z,20.90
2023-05-20T19:09:22.621Z,20.80
2023-05-20T19:11:58.890Z,20.80
2023-05-20T19:14:32.004Z,20.70
2023-05-20T19:17:05.441Z,20.60
2023-05-20T19:19:38.612Z,20.50
2023-05-20T19:22:11.697Z,20.40
2023-05-20T19:24:46.076Z,20.40
2023-05-20T19:27:19.128Z,20.40
2023-05-20T19:29:52.177Z,20.30
2023-05-20T19:32:25.392Z,20.20
2023-05-20T19:34:58.438Z,20.10
2023-05-20T19:37:32.429Z,20.10
2023-05-20T19:40:09.119Z,20.00
2023-05-20T19:42:42.135Z,19.90
2023-05-20T19:45:15.433Z,20.00
2023-05-20T19:47:48.592Z,19.90
2023-05-20T19:50:21.843Z,19.80
2023-05-20T19:52:54.880Z,19.70
2023-05-20T19:55:29.290Z,19.60
2023-05-20T19:58:02.319Z,19.50
2023-05-20T20:00:36.164Z,19.40
2023-05-20T20:03:09.623Z,19.40
2023-05-20T20:05:43.241Z,19.30
2023-05-20T20:08:17.016Z,19.20
2023-05-20T20:10:51.468Z,19.20
2023-05-20T20:13:24.702Z,19.10
2023-05-20T20:15:58.731Z,19.00
2023-05-20T20:18:32.961Z,18.90
2023-05-20T20:21:06.483Z,18.70
2023-05-20T20:23:40.254Z,18.70
2023-05-20T20:26:15.987Z,18.60
2023-05-20T20:28:49.094Z,18.60
2023-05-20T20:31:22.318Z,18.50
2023-05-20T20:33:55.449Z,18.40
2023-05-20T20:36:32.185Z,18.30
2023-05-20T20:39:05.442Z,18.20
2023-05-20T20:41:39.846Z,18.10
2023-05-20T20:44:16.685Z,17.90
2023-05-20T20:46:51.391Z,17.80
2023-05-20T20:49:25.796Z,17.80
2023-05-20T20:52:01.131Z,17.70
2023-05-20T20:54:34.203Z,17.70
2023-05-20T20:57:09.107Z,17.60
2023-05-20T20:59:47.514Z,17.60
2023-05-20T21:02:20.788Z,17.50
2023-05-20T21:05:02.000Z,17.50
2023-05-20T21:07:39.091Z,17.50
2023-05-20T21:10:17.838Z,17.40
2023-05-20T21:12:57.296Z,17.30
2023-05-20T21:15:30.375Z,17.30
2023-05-20T21:18:03.587Z,17.30
2023-05-20T21:20:36.641Z,17.30
2023-05-20T21:23:09.704Z,17.20
2023-05-20T21:25:43.994Z,17.20
2023-05-20T21:28:18.578Z,17.20
2023-05-20T21:30:51.701Z,17.10
2023-05-20T21:33:24.772Z,17.10
2023-05-20T21:35:58.421Z,17.10
2023-05-20T21:38:31.557Z,17.00
2023-05-20T21:41:04.673Z,16.90
2023-05-20T21:43:39.222Z,16.80
2023-05-20T21:46:13.379Z,16.80
2023-05-20T21:48:46.542Z,16.70
2023-05-20T21:51:19.624Z,16.70
2023-05-20T21:53:52.690Z,16.60
2023-05-20T21:56:26.359Z,16.60
2023-05-20T21:59:00.747Z,16.60
2023-05-20T22:01:34.017Z,16.50
2023-05-20T22:04:07.767Z,16.50
2023-05-20T22:06:41.082Z,16.30
2023-05-20T22:09:14.283Z,16.30
2023-05-20T22:11:48.085Z,16.30
2023-05-20T22:14:23.558Z,16.20
2023-05-20T22:16:58.518Z,16.30
2023-05-20T22:19:31.664Z,16.30
2023-05-20T22:22:05.271Z,16.30
2023-05-20T22:24:38.298Z,16.30
2023-05-20T22:27:11.458Z,16.30
2023-05-20T22:29:46.202Z,16.30
2023-05-20T22:32:19.482Z,16.20
2023-05-20T22:34:53.490Z,16.20
2023-05-20T22:37:28.814Z,16.10
2023-05-20T22:40:02.238Z,16.10
2023-05-20T22:42:35.534Z,16.10
2023-05-20T22:45:11.671Z,16.00
2023-05-20T22:47:44.893Z,16.00
2023-05-20T22:50:18.189Z,16.00
2023-05-20T22:52:51.363Z,16.00
2023-05-20T22:55:24.857Z,15.90
2023-05-20T22:57:57.966Z,15.90
2023-05-20T23:00:32.331Z,15.90
2023-05-20T23:03:05.951Z,15.90
2023-05-20T23:05:39.125Z,15.80
2023-05-20T23:08:12.219Z,15.70
2023-05-20T23:10:45.300Z,15.70
2023-05-20T23:13:18.373Z,15.70
2023-05-20T23:15:52.842Z,15.70
2023-05-20T23:18:25.953Z,15.70
2023-05-20T23:20:59.449Z,15.60
2023-05-20T23:23:32.546Z,15.60
2023-05-20T23:26:14.546Z,15.60
2023-05-20T23:28:47.852Z,15.50
2023-05-20T23:31:22.657Z,15.50
2023-05-20T23:33:57.878Z,15.40
2023-05-20T23:36:34.575Z,15.40
2023-05-20T23:39:07.909Z,15.30
2023-05-20T23:41:40.956Z,15.30
2023-05-20T23:44:22.865Z,15.30
2023-05-20T23:47:07.686Z,15.30
2023-05-20T23:49:41.600Z,15.30
2023-05-20T23:52:41.339Z,15.30
2023-05-20T23:55:15.167Z,15.20
2023-05-20T23:57:49.718Z,15.20
